Time;durP1;ratioP1;P1;durP2;ratioP2;P2;SDS_P1;SDS_P2;PMS_P1;PMS_P2;Temp;Humidity;BMP_temperature;BMP_pressure;BME280_temperature;BME280_humidity;BME280_pressure;Samples;Min_cycle;Max_cycle;Signal;HPM_P1;HPM_P2
2023/04/24 07:22:31;;;;;;;;;;;;;;;11.94;68.11;97152.47;5062352;24;19928;-63
2023/04/24 07:24:57;;;;;;;;;;;;;;;11.82;66.81;97148.28;4857672;29;20385;-61
2023/04/24 07:27:22;;;;;;;;;;;;;;;11.80;66.14;97142.31;4858751;29;19920;-63
2023/04/24 07:29:47;;;;;;;;;;;;;;;11.77;65.94;97151.31;4854967;29;19938;-63
2023/04/24 07:32:12;;;;;;;;;;;;;;;11.81;66.41;97157.13;4854252;29;19919;-64
2023/04/24 07:34:37;;;;;;;;;;;;;;;11.78;64.79;97152.97;4847963;29;20011;-63
2023/04/24 07:37:03;;;;;;;;;;;;;;;11.82;65.97;97151.72;4855208;29;20003;-62
2023/04/24 07:39:29;;;;;;;;;;;;;;;11.82;65.29;97158.78;4836964;29;20015;-63
2023/04/24 07:41:54;;;;;;;;;;;;;;;11.95;64.72;97162.00;4853134;29;20437;-68
2023/04/24 07:44:19;;;;;;;;;;;;;;;12.02;65.16;97163.09;4849162;29;19946;-67
2023/04/24 07:46:45;;;;;;;;;;;;;;;12.22;64.27;97165.72;4855137;29;20007;-65
2023/04/24 07:49:10;;;;;;;;;;;;;;;12.18;62.49;97164.31;4858358;29;20297;-65
2023/04/24 07:51:38;;;;;;;;;;;;;;;12.36;62.74;97167.91;4855938;29;19927;-66
2023/04/24 07:54:03;;;;;;;;;;;;;;;12.55;62.17;97167.81;4837476;29;19927;-66
2023/04/24 07:56:30;;;;;;;;;;;;;;;12.83;62.24;97166.09;4854703;29;20007;-66
2023/04/24 07:58:56;;;;;;;;;;;;;;;12.86;60.72;97159.69;4825183;29;19969;-66
2023/04/24 08:01:21;;;;;;;;;;;;;;;12.92;60.68;97172.28;4860573;29;19955;-67
2023/04/24 08:03:46;;;;;;;;;;;;;;;12.99;60.28;97176.00;4854768;29;20028;-65
2023/04/24 08:06:11;;;;;;;;;;;;;;;12.81;58.80;97175.94;4859719;29;20385;-65
2023/04/24 08:08:37;;;;;;;;;;;;;;;12.81;58.43;97177.75;4852932;29;20398;-65
2023/04/24 08:11:02;;;;;;;;;;;;;;;12.93;59.37;97176.56;4839957;29;20469;-64
2023/04/24 08:13:27;;;;;;;;;;;;;;;12.98;59.04;97192.78;4859088;29;19931;-64
2023/04/24 08:15:52;;;;;;;;;;;;;;;12.91;59.07;97194.31;4859951;29;19972;-64
2023/04/24 08:18:18;;;;;;;;;;;;;;;13.11;58.58;97194.22;4859079;29;19919;-62
2023/04/24 08:20:43;;;;;;;;;;;;;;;12.95;58.32;97194.88;4857771;29;19927;-65
2023/04/24 08:23:08;;;;;;;;;;;;;;;12.74;59.19;97192.44;4860071;29;19916;-63
2023/04/24 08:25:35;;;;;;;;;;;;;;;12.77;59.05;97202.69;4841036;29;19927;-64
2023/04/24 08:28:00;;;;;;;;;;;;;;;12.75;58.01;97196.72;4856902;29;19928;-65
2023/04/24 08:30:25;;;;;;;;;;;;;;;12.80;57.05;97202.38;4854596;29;19925;-64
2023/04/24 08:32:50;;;;;;;;;;;;;;;12.83;58.08;97197.69;4859710;29;19916;-65
2023/04/24 08:35:16;;;;;;;;;;;;;;;13.04;56.84;97205.34;4833749;29;19920;-65
2023/04/24 08:37:41;;;;;;;;;;;;;;;12.97;56.73;97201.66;4859645;29;19923;-65
2023/04/24 08:40:11;;;;;;;;;;;;;;;12.87;55.93;97207.88;4859444;29;19920;-64
2023/04/24 08:42:36;;;;;;;;;;;;;;;13.12;56.83;97214.34;4856212;29;19920;-66
2023/04/24 08:45:02;;;;;;;;;;;;;;;13.19;55.87;97218.03;4848651;29;19921;-66
2023/04/24 08:47:27;;;;;;;;;;;;;;;13.04;56.89;97215.88;4841396;29;19927;-66
2023/04/24 08:49:52;;;;;;;;;;;;;;;13.17;57.45;97215.53;4831722;29;19947;-66
2023/04/24 08:52:18;;;;;;;;;;;;;;;13.11;56.17;97215.28;4841210;29;19920;-66
2023/04/24 08:54:45;;;;;;;;;;;;;;;13.04;57.31;97215.88;4855045;29;20003;-67
2023/04/24 08:57:11;;;;;;;;;;;;;;;13.18;57.74;97214.59;4833104;29;19920;-65
2023/04/24 17:34:53;;;;;;;;;;;;;;;12.57;50.16;97434.19;5745833;23;22588;-62
2023/04/24 17:37:21;;;;;;;;;;;;;;;12.43;49.35;97431.97;4848256;29;19928;-62
2023/04/24 17:39:47;;;;;;;;;;;;;;;12.26;50.63;97430.00;4846166;29;20015;-63
2023/04/24 17:42:12;;;;;;;;;;;;;;;12.10;50.84;97438.38;4841368;29;20018;-61
2023/04/24 17:44:37;;;;;;;;;;;;;;;11.98;51.63;97436.81;4849949;29;19948;-63
2023/04/24 17:47:03;;;;;;;;;;;;;;;11.81;52.72;97436.44;4830619;29;20012;-65
2023/04/24 17:49:28;;;;;;;;;;;;;;;11.95;52.59;97443.16;4833087;29;20017;-62
2023/04/24 17:51:54;;;;;;;;;;;;;;;11.84;53.46;97444.09;4829219;29;20019;-64
2023/04/24 17:54:19;;;;;;;;;;;;;;;11.81;53.70;97446.13;4824402;29;20119;-62
2023/04/24 17:56:44;;;;;;;;;;;;;;;11.82;54.69;97442.53;4835667;29;19999;-64
2023/04/24 17:59:09;;;;;;;;;;;;;;;11.74;54.21;97437.94;4815807;29;20290;-63
2023/04/24 18:01:35;;;;;;;;;;;;;;;11.65;54.61;97442.16;4832374;29;19940;-61
2023/04/24 18:04:00;;;;;;;;;;;;;;;11.59;55.93;97452.34;4840570;29;19921;-61
2023/04/24 18:06:25;;;;;;;;;;;;;;;11.54;55.87;97450.13;4832650;29;19977;-63
2023/04/24 18:08:51;;;;;;;;;;;;;;;11.43;55.93;97447.56;4837341;29;19921;-63
2023/04/24 18:11:16;;;;;;;;;;;;;;;11.48;56.03;97439.31;4839434;29;19924;-63
2023/04/24 18:13:41;;;;;;;;;;;;;;;11.33;56.57;97438.81;4829767;29;19981;-61
2023/04/24 18:16:06;;;;;;;;;;;;;;;11.12;56.22;97441.44;4812357;29;19956;-61
2023/04/24 18:18:31;;;;;;;;;;;;;;;11.02;57.79;97441.34;4831511;29;20012;-62
2023/04/24 18:20:57;;;;;;;;;;;;;;;10.98;57.62;97442.56;4833648;29;19921;-62
2023/04/24 18:23:22;;;;;;;;;;;;;;;10.80;58.25;97444.06;4834743;29;20410;-62
2023/04/24 18:25:47;;;;;;;;;;;;;;;10.72;58.25;97451.72;4816428;29;20294;-64
2023/04/24 18:28:12;;;;;;;;;;;;;;;10.64;58.25;97453.19;4836499;29;19959;-63
2023/04/24 18:30:38;;;;;;;;;;;;;;;10.49;59.51;97454.38;4840847;29;19967;-62
2023/04/24 18:33:03;;;;;;;;;;;;;;;10.35;59.94;97460.75;4838582;29;19968;-63
2023/04/24 18:35:28;;;;;;;;;;;;;;;10.49;59.20;97464.06;4838599;29;20004;-62
2023/04/24 18:37:53;;;;;;;;;;;;;;;10.48;59.90;97459.78;4832861;29;20016;-63
2023/04/24 18:40:18;;;;;;;;;;;;;;;10.33;60.61;97467.06;4837146;29;20038;-63
2023/04/24 18:42:44;;;;;;;;;;;;;;;10.39;60.08;97467.44;4829887;29;20015;-62
2023/04/24 18:45:09;;;;;;;;;;;;;;;10.33;60.19;97473.16;4838745;29;19924;-62
2023/04/24 18:47:35;;;;;;;;;;;;;;;10.29;60.94;97476.13;4836028;29;19927;-62
2023/04/24 18:50:00;;;;;;;;;;;;;;;10.23;61.30;97487.91;4827963;29;19929;-62
2023/04/24 18:52:26;;;;;;;;;;;;;;;10.17;61.26;97483.97;4834206;29;19928;-63
2023/04/24 18:54:51;;;;;;;;;;;;;;;10.11;61.99;97488.84;4830019;29;19917;-62
2023/04/24 18:57:16;;;;;;;;;;;;;;;10.06;61.90;97486.59;4833055;29;19925;-63
2023/04/24 18:59:41;;;;;;;;;;;;;;;10.04;61.78;97485.88;4826162;29;19921;-62
2023/04/24 19:02:07;;;;;;;;;;;;;;;9.99;62.41;97488.03;4830446;29;19921;-63
2023/04/24 19:04:32;;;;;;;;;;;;;;;9.91;62.52;97493.00;4826048;29;19916;-62
2023/04/24 19:06:57;;;;;;;;;;;;;;;9.93;62.64;97493.72;4826565;29;20446;-62
2023/04/24 19:09:22;;;;;;;;;;;;;;;9.89;62.71;97506.22;4834281;29;19992;-62
2023/04/24 19:11:47;;;;;;;;;;;;;;;9.91;62.81;97487.75;4826403;29;19925;-62
2023/04/24 19:14:13;;;;;;;;;;;;;;;9.92;62.89;97499.94;4838932;29;19924;-62
2023/04/24 19:16:38;;;;;;;;;;;;;;;9.85;62.99;97506.59;4826388;29;19921;-62
2023/04/24 19:19:04;;;;;;;;;;;;;;;9.83;63.91;97511.09;4833034;29;19977;-62
2023/04/24 19:21:30;;;;;;;;;;;;;;;9.79;63.64;97514.91;4836454;29;19928;-62
2023/04/24 19:23:55;;;;;;;;;;;;;;;9.82;63.32;97515.50;4814515;29;20439;-63
2023/04/24 19:26:22;;;;;;;;;;;;;;;9.81;63.71;97513.84;4807267;29;20019;-64
2023/04/24 19:28:47;;;;;;;;;;;;;;;9.72;63.71;97509.31;4837766;29;20021;-63
2023/04/24 19:31:13;;;;;;;;;;;;;;;9.71;63.70;97513.72;4828051;29;20024;-63
2023/04/24 19:33:38;;;;;;;;;;;;;;;9.69;64.33;97518.22;4828631;29;20370;-64
2023/04/24 19:36:04;;;;;;;;;;;;;;;9.59;64.23;97519.88;4842219;29;20545;-62
2023/04/24 19:38:29;;;;;;;;;;;;;;;9.46;64.09;97516.50;4817286;29;19943;-65
2023/04/24 19:40:54;;;;;;;;;;;;;;;9.46;64.66;97532.22;4827481;29;20379;-64
2023/04/24 19:43:20;;;;;;;;;;;;;;;9.40;64.83;97525.66;4811947;29;20418;-64
2023/04/24 19:45:45;;;;;;;;;;;;;;;9.40;65.25;97530.06;4831629;29;20414;-64
2023/04/24 19:48:10;;;;;;;;;;;;;;;9.36;65.38;97524.22;4830673;29;20048;-64
2023/04/24 19:50:35;;;;;;;;;;;;;;;9.34;65.28;97523.50;4828317;29;19924;-64
2023/04/24 19:53:01;;;;;;;;;;;;;;;9.32;64.91;97519.31;4837272;29;19920;-63
2023/04/24 19:55:26;;;;;;;;;;;;;;;9.27;65.48;97517.88;4827917;29;19927;-63
2023/04/24 19:57:51;;;;;;;;;;;;;;;9.20;65.41;97523.69;4827659;29;20401;-65
2023/04/24 20:00:16;;;;;;;;;;;;;;;9.22;65.35;97517.41;4831437;29;20379;-63
2023/04/24 20:02:41;;;;;;;;;;;;;;;9.19;65.34;97517.63;4830087;29;20383;-65
2023/04/24 20:05:09;;;;;;;;;;;;;;;9.18;65.95;97518.56;4813513;29;20142;-64
2023/04/24 20:07:35;;;;;;;;;;;;;;;9.06;66.08;97527.31;4827780;29;20023;-64
2023/04/24 20:10:00;;;;;;;;;;;;;;;9.06;66.64;97526.50;4827852;29;19931;-63
2023/04/24 20:12:25;;;;;;;;;;;;;;;9.04;66.54;97516.94;4838221;29;19928;-63
2023/04/24 20:14:50;;;;;;;;;;;;;;;8.92;67.44;97525.72;4828370;29;19920;-64
2023/04/24 20:17:16;;;;;;;;;;;;;;;8.89;67.33;97519.88;4834765;29;19927;-63
2023/04/24 20:19:41;;;;;;;;;;;;;;;8.84;67.33;97519.34;4824747;29;20350;-64
2023/04/24 20:22:06;;;;;;;;;;;;;;;8.91;66.82;97517.94;4836171;29;19936;-63
2023/04/24 20:24:32;;;;;;;;;;;;;;;8.91;66.80;97518.81;4813002;29;19924;-63
2023/04/24 20:26:57;;;;;;;;;;;;;;;8.87;66.95;97513.91;4832743;29;19924;-63
2023/04/24 20:29:22;;;;;;;;;;;;;;;8.82;67.09;97511.63;4832811;29;20006;-64
2023/04/24 20:31:47;;;;;;;;;;;;;;;8.83;66.82;97515.06;4811260;29;19928;-64
2023/04/24 20:34:13;;;;;;;;;;;;;;;8.85;67.59;97521.03;4832301;29;20291;-63
2023/04/24 20:36:38;;;;;;;;;;;;;;;8.81;66.99;97515.19;4827398;29;20299;-63
2023/04/24 20:39:06;;;;;;;;;;;;;;;8.73;67.95;97509.66;4833348;29;20314;-65
